Etihad Airways Virtual Airport Information Service

Paris Charles de Gaulle Airport

ICAO: LFPG Country: France
Latitude: 49.0125 Longitude: 2.55575
Latest Arrival : ETD31 (OMAA-LFPG) Latest Departure : ETD38 (LFPG-OMAA)


WX CaptureLIVE
Data provided by noaa.gov | Recorded at 05:29:16

METAR : LFPG 190500Z 27008KT 9999 BKN013 SCT028 05/03 Q1022 NOSIG

TAF : LFPG 190408Z 1904/2006 27010KT 9999 BKN020 TX09/1913Z TN04/1906Z PROB40 TEMPO 1904/1906 BKN013 PROB40 TEMPO 1920/1923 BKN008 PROB30 2000/2006 BKN012


Runway Data for LFPG
Data provided by openaviationdata.com

Runway ID Mag Var Hdg Length Elevation Surface ILS Freq ILS Id ILS Slope

Paris Charles de Gaulle Airport, France
Use only for reference purposes